createdAt,value
2022-07-29T00:02:03.449Z,24.21
2022-07-29T00:04:31.244Z,24.21
2022-07-29T00:06:59.819Z,24.23
2022-07-29T00:09:51.309Z,24.24
2022-07-29T00:12:26.235Z,24.20
2022-07-29T00:14:57.343Z,24.24
2022-07-29T00:17:28.780Z,23.93
2022-07-29T00:19:58.891Z,23.83
2022-07-29T00:22:28.076Z,23.78
2022-07-29T00:24:55.723Z,23.83
2022-07-29T00:27:23.482Z,23.64
2022-07-29T00:29:51.190Z,23.73
2022-07-29T00:32:18.677Z,23.73
2022-07-29T00:35:07.999Z,23.83
2022-07-29T00:37:44.058Z,23.68
2022-07-29T00:40:16.149Z,23.53
2022-07-29T00:42:51.882Z,23.59
2022-07-29T00:45:20.222Z,23.63
2022-07-29T00:47:49.861Z,23.72
2022-07-29T00:50:27.555Z,23.72
2022-07-29T00:53:04.533Z,23.49
2022-07-29T00:55:46.563Z,23.30
2022-07-29T00:58:15.075Z,23.29
2022-07-29T01:00:44.914Z,23.36
2022-07-29T01:03:13.731Z,23.37
2022-07-29T01:05:50.751Z,23.33
2022-07-29T01:08:21.303Z,23.38
2022-07-29T01:10:50.390Z,23.50
2022-07-29T01:13:20.126Z,23.36
2022-07-29T01:15:57.830Z,23.40
2022-07-29T01:18:28.254Z,23.26
2022-07-29T01:21:17.480Z,23.02
2022-07-29T01:24:18.416Z,23.24
2022-07-29T01:27:27.516Z,23.04
2022-07-29T01:30:00.850Z,23.00
2022-07-29T01:32:32.789Z,23.09
2022-07-29T01:35:22.227Z,23.16
2022-07-29T01:38:08.111Z,23.15
2022-07-29T01:40:44.023Z,23.25
2022-07-29T01:43:15.650Z,23.31
2022-07-29T01:45:54.298Z,23.32
2022-07-29T01:48:56.961Z,23.33
2022-07-29T01:51:44.144Z,23.32
2022-07-29T01:54:28.251Z,23.21
2022-07-29T01:57:00.747Z,23.09
2022-07-29T01:59:37.125Z,23.09
2022-07-29T02:02:13.729Z,22.95
2022-07-29T02:04:51.745Z,22.84
2022-07-29T02:07:23.426Z,22.92
2022-07-29T02:09:54.240Z,22.84
2022-07-29T02:12:28.092Z,22.97
2022-07-29T02:15:02.702Z,22.78
2022-07-29T02:17:57.558Z,22.79
2022-07-29T02:20:27.921Z,22.85
2022-07-29T02:22:58.192Z,22.88
2022-07-29T02:25:38.037Z,22.87
2022-07-29T02:28:08.643Z,22.92
2022-07-29T02:30:46.209Z,22.69
2022-07-29T02:33:17.973Z,22.86
2022-07-29T02:35:49.525Z,22.87
2022-07-29T02:38:52.967Z,22.74
2022-07-29T02:41:30.690Z,22.79
2022-07-29T02:44:11.518Z,22.60
2022-07-29T02:46:54.786Z,22.64
2022-07-29T02:53:32.929Z,22.58
2022-07-29T02:56:23.872Z,22.62
2022-07-29T02:59:10.555Z,22.65
2022-07-29T03:01:46.271Z,22.70
2022-07-29T03:04:19.255Z,22.32
2022-07-29T03:06:49.757Z,22.52
2022-07-29T03:09:31.140Z,22.56
2022-07-29T03:12:06.833Z,22.48
2022-07-29T03:14:37.080Z,22.64
2022-07-29T03:19:52.917Z,22.79
2022-07-29T03:22:23.234Z,22.71
2022-07-29T03:24:55.300Z,22.62
2022-07-29T03:27:25.951Z,22.67
2022-07-29T03:29:55.496Z,22.43
2022-07-29T03:32:25.352Z,22.34
2022-07-29T03:34:53.138Z,22.38
2022-07-29T03:37:26.330Z,22.30
2022-07-29T03:40:04.954Z,22.21
2022-07-29T03:42:40.226Z,22.32
2022-07-29T03:45:21.401Z,22.09
2022-07-29T03:48:00.559Z,22.11
2022-07-29T03:50:35.003Z,22.18
2022-07-29T03:53:08.291Z,22.32
2022-07-29T03:55:43.667Z,22.34
2022-07-29T03:58:15.381Z,22.25
2022-07-29T04:00:43.967Z,22.13
2022-07-29T04:03:16.991Z,22.16
2022-07-29T04:05:45.410Z,22.32
2022-07-29T04:08:14.088Z,22.29
2022-07-29T04:10:42.800Z,22.41
2022-07-29T04:13:12.963Z,22.32
2022-07-29T04:15:40.828Z,22.39
2022-07-29T04:18:08.602Z,22.46
2022-07-29T04:20:42.168Z,22.51
2022-07-29T04:23:13.123Z,22.49
2022-07-29T04:25:43.939Z,22.45
2022-07-29T04:28:13.307Z,22.50
2022-07-29T04:30:43.671Z,22.45
2022-07-29T04:33:13.696Z,22.56
2022-07-29T04:35:45.791Z,22.54
2022-07-29T04:38:24.608Z,22.61
2022-07-29T04:40:55.226Z,22.65
2022-07-29T04:43:29.179Z,22.69
2022-07-29T04:46:09.817Z,22.76
2022-07-29T04:48:40.821Z,22.63
2022-07-29T04:51:08.550Z,22.51
2022-07-29T04:53:41.131Z,22.43
2022-07-29T04:56:11.684Z,22.45
2022-07-29T04:58:39.522Z,22.56
2022-07-29T05:01:13.553Z,22.55
2022-07-29T05:04:10.071Z,22.56
2022-07-29T05:06:43.167Z,22.68
2022-07-29T05:09:14.412Z,22.75
2022-07-29T05:11:45.329Z,22.91
2022-07-29T05:14:14.369Z,23.14
2022-07-29T05:16:45.357Z,23.24
2022-07-29T05:19:17.386Z,23.35
2022-07-29T05:24:36.908Z,23.30
2022-07-29T05:27:09.929Z,23.28
2022-07-29T05:29:45.909Z,23.41
2022-07-29T05:32:15.438Z,23.60
2022-07-29T05:34:50.796Z,23.70
2022-07-29T05:37:21.440Z,23.83
2022-07-29T05:39:56.164Z,24.02
2022-07-29T05:42:28.842Z,23.95
2022-07-29T05:44:57.666Z,24.17
2022-07-29T05:47:33.412Z,24.32
2022-07-29T05:50:09.806Z,24.53
2022-07-29T05:52:37.123Z,24.64
2022-07-29T05:55:06.698Z,24.37
2022-07-29T05:57:34.381Z,24.53
2022-07-29T06:00:01.828Z,24.89
2022-07-29T06:02:40.308Z,24.91
2022-07-29T06:05:10.610Z,25.15
2022-07-29T06:07:50.703Z,25.47
2022-07-29T06:10:20.180Z,25.30
2022-07-29T06:12:51.744Z,25.47
2022-07-29T06:15:20.447Z,25.55
2022-07-29T06:17:59.941Z,25.26
2022-07-29T06:20:31.883Z,25.61
2022-07-29T06:23:01.018Z,25.70
2022-07-29T06:25:33.470Z,25.95
2022-07-29T06:28:02.596Z,25.80
2022-07-29T06:30:30.530Z,25.82
2022-07-29T06:32:58.014Z,26.16
2022-07-29T06:35:38.891Z,26.21
2022-07-29T06:38:31.245Z,26.52
2022-07-29T06:41:25.232Z,26.51
2022-07-29T06:43:55.377Z,26.50
2022-07-29T06:46:24.686Z,27.09
2022-07-29T06:48:53.363Z,27.22
2022-07-29T06:51:23.167Z,27.28
2022-07-29T06:54:00.373Z,27.19
2022-07-29T06:56:39.741Z,27.00
2022-07-29T06:59:10.206Z,27.01
2022-07-29T07:01:42.205Z,27.04
2022-07-29T07:04:12.002Z,27.17
2022-07-29T07:06:39.652Z,27.50
2022-07-29T07:09:07.339Z,27.32
2022-07-29T07:11:35.220Z,27.63
2022-07-29T07:14:04.089Z,27.74
2022-07-29T07:16:40.633Z,28.14
2022-07-29T07:19:08.681Z,28.01
2022-07-29T07:21:38.697Z,28.23
2022-07-29T07:24:06.805Z,28.65
2022-07-29T07:26:35.986Z,28.99
2022-07-29T07:29:05.765Z,29.50
2022-07-29T07:31:35.084Z,29.40
2022-07-29T07:34:02.714Z,28.83
2022-07-29T07:36:30.241Z,29.74
2022-07-29T07:38:57.612Z,29.73
2022-07-29T07:41:25.553Z,29.88
2022-07-29T07:43:53.154Z,29.38
2022-07-29T07:46:20.934Z,29.89
2022-07-29T07:48:51.231Z,29.70
2022-07-29T07:51:21.678Z,29.60
2022-07-29T07:53:53.634Z,29.09
2022-07-29T07:56:25.838Z,29.65
2022-07-29T07:58:53.513Z,29.99
2022-07-29T08:01:24.219Z,29.73
2022-07-29T08:03:52.323Z,29.29
2022-07-29T08:06:22.033Z,29.06
2022-07-29T08:08:51.895Z,29.21
2022-07-29T08:11:22.018Z,29.18
2022-07-29T08:13:49.779Z,29.50
2022-07-29T08:16:21.131Z,29.59
2022-07-29T08:18:49.778Z,28.64
2022-07-29T08:21:18.872Z,29.09
2022-07-29T08:24:12.850Z,29.40
2022-07-29T08:26:42.138Z,28.98
2022-07-29T08:29:10.428Z,29.17
2022-07-29T08:31:39.594Z,29.43
2022-07-29T08:34:13.212Z,29.53
2022-07-29T08:36:41.998Z,29.62
2022-07-29T08:39:11.672Z,29.56
2022-07-29T08:41:42.733Z,29.52
2022-07-29T08:44:30.940Z,29.96
2022-07-29T08:46:59.741Z,29.87
2022-07-29T08:49:31.389Z,30.03
2022-07-29T08:52:01.321Z,30.11
2022-07-29T08:54:31.620Z,30.90
2022-07-29T08:57:00.196Z,31.44
2022-07-29T08:59:29.496Z,31.83
2022-07-29T09:02:01.427Z,31.62
2022-07-29T09:04:37.231Z,31.76
2022-07-29T09:07:06.969Z,32.43
2022-07-29T09:09:35.263Z,32.73
2022-07-29T09:12:05.160Z,32.86
2022-07-29T09:14:34.115Z,33.54
2022-07-29T09:17:02.175Z,33.23
2022-07-29T09:19:51.141Z,32.35
2022-07-29T09:22:41.907Z,32.02
2022-07-29T09:25:13.104Z,31.99
2022-07-29T09:27:41.693Z,32.39
2022-07-29T09:30:11.823Z,32.66
2022-07-29T09:32:59.402Z,32.14
2022-07-29T09:35:28.256Z,33.01
2022-07-29T09:37:56.129Z,33.68
2022-07-29T09:40:30.592Z,33.32
2022-07-29T09:43:19.616Z,32.60
2022-07-29T09:45:50.424Z,33.03
2022-07-29T09:48:28.425Z,32.67
2022-07-29T09:50:56.165Z,32.08
2022-07-29T09:53:36.653Z,31.85
2022-07-29T09:56:06.308Z,32.26
2022-07-29T09:58:35.049Z,33.07
2022-07-29T10:01:02.968Z,33.57
2022-07-29T10:03:30.669Z,34.12
2022-07-29T10:06:16.872Z,34.24
2022-07-29T10:08:48.532Z,33.31
2022-07-29T10:11:20.195Z,33.55
2022-07-29T10:13:50.775Z,33.36
2022-07-29T10:16:19.287Z,34.02
2022-07-29T10:18:48.095Z,33.12
2022-07-29T10:21:34.766Z,34.13
2022-07-29T10:24:15.033Z,34.45
2022-07-29T10:26:45.201Z,33.67
2022-07-29T10:29:14.074Z,32.76
2022-07-29T10:31:53.447Z,33.07
2022-07-29T10:34:31.515Z,33.79
2022-07-29T10:37:21.238Z,34.21
2022-07-29T10:40:30.111Z,33.98
2022-07-29T10:43:11.159Z,34.03
2022-07-29T10:45:56.121Z,33.48
2022-07-29T10:48:26.061Z,34.57
2022-07-29T10:51:06.864Z,35.37
2022-07-29T10:53:49.189Z,34.47
2022-07-29T10:56:38.508Z,33.90
2022-07-29T10:59:23.537Z,33.61
2022-07-29T11:01:53.662Z,34.68
2022-07-29T11:04:44.634Z,35.13
2022-07-29T11:07:15.099Z,34.25
2022-07-29T11:09:43.901Z,33.18
2022-07-29T11:12:37.337Z,33.15
2022-07-29T11:15:09.815Z,32.93
2022-07-29T11:18:05.429Z,33.00
2022-07-29T11:20:45.945Z,33.11
2022-07-29T11:23:33.383Z,32.86
2022-07-29T11:26:12.851Z,33.64
2022-07-29T11:28:57.086Z,34.23
2022-07-29T11:31:47.680Z,33.80
2022-07-29T11:34:38.106Z,33.75
2022-07-29T11:37:14.901Z,34.51
2022-07-29T11:39:43.365Z,35.36
2022-07-29T11:42:32.577Z,35.24
2022-07-29T11:45:09.017Z,35.77
2022-07-29T11:48:31.581Z,34.84
2022-07-29T11:50:51.973Z,35.43
2022-07-29T11:53:24.963Z,34.99
2022-07-29T11:56:02.831Z,33.93
2022-07-29T11:58:38.469Z,34.08
2022-07-29T12:01:07.429Z,33.68
2022-07-29T12:03:36.972Z,33.14
2022-07-29T12:06:15.076Z,33.80
2022-07-29T12:08:44.308Z,34.67
2022-07-29T12:11:21.185Z,34.48
2022-07-29T12:13:51.830Z,34.28
2022-07-29T12:16:25.850Z,33.79
2022-07-29T12:18:59.499Z,34.95
2022-07-29T12:21:28.880Z,35.13
2022-07-29T12:24:03.365Z,35.09
2022-07-29T12:26:37.277Z,35.17
2022-07-29T12:29:11.207Z,35.03
2022-07-29T12:31:42.817Z,35.25
2022-07-29T12:34:16.959Z,35.46
2022-07-29T12:36:45.887Z,35.19
2022-07-29T12:39:16.639Z,35.15
2022-07-29T12:41:46.316Z,33.91
2022-07-29T12:44:15.622Z,33.23
2022-07-29T12:46:44.459Z,33.83
2022-07-29T12:49:22.966Z,34.04
2022-07-29T12:51:51.234Z,34.30
2022-07-29T12:54:20.023Z,34.59
2022-07-29T12:56:47.470Z,34.70
2022-07-29T12:59:24.694Z,34.53
2022-07-29T13:01:54.785Z,34.86
2022-07-29T13:04:28.465Z,34.12
2022-07-29T13:07:09.232Z,33.97
2022-07-29T13:09:46.657Z,34.10
2022-07-29T13:12:15.143Z,34.22
2022-07-29T13:14:48.525Z,34.35
2022-07-29T13:17:19.202Z,34.39
2022-07-29T13:19:50.760Z,35.22
2022-07-29T13:22:20.762Z,34.81
2022-07-29T13:24:50.559Z,35.38
2022-07-29T13:27:19.980Z,36.18
2022-07-29T13:29:48.314Z,35.84
2022-07-29T13:32:15.842Z,36.28
2022-07-29T13:34:43.269Z,36.31
2022-07-29T13:37:11.463Z,36.12
2022-07-29T13:39:39.116Z,35.32
2022-07-29T13:42:10.909Z,35.22
2022-07-29T13:44:39.261Z,35.03
2022-07-29T13:47:07.985Z,34.71
2022-07-29T13:49:36.086Z,34.23
2022-07-29T13:52:04.553Z,33.74
2022-07-29T13:54:32.207Z,34.36
2022-07-29T13:56:59.688Z,35.19
2022-07-29T13:59:27.543Z,35.84
2022-07-29T14:01:55.433Z,36.15
2022-07-29T14:04:26.955Z,35.86
2022-07-29T14:06:55.099Z,35.66
2022-07-29T14:09:24.802Z,35.17
2022-07-29T14:11:53.940Z,35.21
2022-07-29T14:14:21.578Z,34.91
2022-07-29T14:16:52.193Z,34.40
2022-07-29T14:19:19.935Z,34.39
2022-07-29T14:21:48.405Z,34.71
2022-07-29T14:24:23.114Z,34.47
2022-07-29T14:26:51.483Z,34.86
2022-07-29T14:29:18.971Z,33.52
2022-07-29T14:31:49.898Z,33.77
2022-07-29T14:34:18.498Z,33.75
2022-07-29T14:36:47.032Z,33.72
2022-07-29T14:39:16.823Z,33.48
2022-07-29T14:41:44.815Z,33.64
2022-07-29T14:44:12.461Z,33.43
2022-07-29T14:46:40.175Z,33.11
2022-07-29T14:49:09.511Z,33.06
2022-07-29T14:51:42.689Z,33.07
2022-07-29T14:54:11.570Z,33.00
2022-07-29T14:56:46.726Z,33.29
2022-07-29T14:59:16.286Z,33.89
2022-07-29T15:01:46.269Z,34.11
2022-07-29T15:04:16.161Z,34.20
2022-07-29T15:06:44.186Z,34.56
2022-07-29T15:09:11.814Z,34.93
2022-07-29T15:11:41.109Z,35.11
2022-07-29T15:14:08.800Z,35.40
2022-07-29T15:16:43.500Z,35.64
2022-07-29T15:19:12.549Z,35.12
2022-07-29T15:21:41.662Z,35.24
2022-07-29T15:24:22.275Z,35.71
2022-07-29T15:26:49.800Z,36.04
2022-07-29T15:29:21.118Z,35.54
2022-07-29T15:31:52.592Z,35.19
2022-07-29T15:34:44.734Z,34.67
2022-07-29T15:37:22.509Z,34.39
2022-07-29T15:40:09.573Z,34.29
2022-07-29T15:42:38.899Z,34.45
2022-07-29T15:45:09.273Z,34.11
2022-07-29T15:47:38.655Z,33.92
2022-07-29T15:50:18.824Z,33.48
2022-07-29T15:53:09.669Z,33.45
2022-07-29T15:55:48.938Z,33.28
2022-07-29T15:58:34.571Z,33.07
2022-07-29T16:01:14.818Z,32.97
2022-07-29T16:04:01.601Z,32.94
2022-07-29T16:06:40.580Z,33.15
2022-07-29T16:09:08.139Z,33.40
2022-07-29T16:11:36.343Z,33.58
2022-07-29T16:14:23.390Z,33.72
2022-07-29T16:16:51.452Z,33.86
2022-07-29T16:19:24.791Z,34.02
2022-07-29T16:21:54.974Z,34.05
2022-07-29T16:24:29.995Z,34.08
2022-07-29T16:27:02.400Z,33.98
2022-07-29T16:29:31.654Z,33.85
2022-07-29T16:32:06.309Z,34.01
2022-07-29T16:34:35.293Z,33.89
2022-07-29T16:37:35.961Z,33.81
2022-07-29T16:40:14.212Z,33.57
2022-07-29T16:42:46.935Z,33.53
2022-07-29T16:45:21.659Z,33.37
2022-07-29T16:47:50.237Z,33.49
2022-07-29T16:50:18.069Z,33.31
2022-07-29T16:52:45.629Z,33.11
2022-07-29T16:55:14.626Z,32.85
2022-07-29T16:58:00.154Z,32.93
2022-07-29T17:00:30.092Z,32.76
2022-07-29T17:03:00.733Z,32.79
2022-07-29T17:05:53.400Z,32.73
2022-07-29T17:08:24.068Z,32.84
2022-07-29T17:10:51.526Z,32.63
2022-07-29T17:13:18.968Z,32.60
2022-07-29T17:15:46.665Z,32.54
2022-07-29T17:18:14.057Z,32.55
2022-07-29T17:20:48.480Z,32.53
2022-07-29T17:23:26.781Z,32.30
2022-07-29T17:25:59.870Z,32.23
2022-07-29T17:28:27.634Z,32.07
2022-07-29T17:30:57.113Z,31.98
2022-07-29T17:33:28.919Z,31.77
2022-07-29T17:36:18.595Z,31.75
2022-07-29T17:39:04.494Z,31.79
2022-07-29T17:41:35.142Z,31.71
2022-07-29T17:44:05.587Z,31.45
2022-07-29T17:46:43.668Z,31.28
2022-07-29T17:49:12.306Z,31.29
2022-07-29T17:55:17.527Z,30.95
2022-07-29T17:57:48.480Z,30.85
2022-07-29T18:00:18.648Z,30.66
2022-07-29T18:03:12.078Z,30.59
2022-07-29T18:05:39.418Z,30.47
2022-07-29T18:08:06.770Z,30.44
2022-07-29T18:10:34.286Z,30.35
2022-07-29T18:13:02.915Z,30.26
2022-07-29T18:15:30.955Z,30.15
2022-07-29T18:17:58.375Z,30.08
2022-07-29T18:20:28.759Z,29.90
2022-07-29T18:22:56.290Z,29.76
2022-07-29T18:25:25.905Z,29.66
2022-07-29T18:27:56.155Z,29.65
2022-07-29T18:30:25.996Z,29.71
2022-07-29T18:33:19.201Z,29.81
2022-07-29T18:35:42.327Z,29.77
2022-07-29T18:38:09.679Z,29.76
2022-07-29T18:40:40.233Z,29.70
2022-07-29T18:43:09.484Z,29.65
2022-07-29T18:45:36.765Z,29.69
2022-07-29T18:48:12.831Z,29.59
2022-07-29T18:50:41.961Z,29.50
2022-07-29T18:53:09.355Z,29.37
2022-07-29T18:55:36.647Z,29.08
2022-07-29T18:58:04.258Z,29.10
2022-07-29T19:00:31.928Z,29.02
2022-07-29T19:03:00.288Z,28.90
2022-07-29T19:05:27.951Z,28.69
2022-07-29T19:07:56.242Z,28.63
2022-07-29T19:10:23.615Z,28.53
2022-07-29T19:12:51.177Z,28.46
2022-07-29T19:15:20.754Z,28.33
2022-07-29T19:17:51.990Z,28.26
2022-07-29T19:20:22.960Z,28.17
2022-07-29T19:23:10.946Z,28.10
2022-07-29T19:25:53.146Z,28.14
2022-07-29T19:28:25.366Z,28.08
2022-07-29T19:30:52.992Z,28.15
2022-07-29T19:33:21.022Z,28.18
2022-07-29T19:35:54.364Z,28.16
2022-07-29T19:38:23.233Z,28.11
2022-07-29T19:41:09.805Z,28.18
2022-07-29T19:43:49.886Z,28.21
2022-07-29T19:46:25.827Z,28.20
2022-07-29T19:48:57.866Z,28.12
2022-07-29T19:51:30.949Z,28.00
2022-07-29T19:54:01.063Z,28.16
2022-07-29T19:56:30.210Z,28.32
2022-07-29T19:58:58.124Z,28.36
2022-07-29T20:01:26.193Z,28.35
2022-07-29T20:03:54.071Z,28.26
2022-07-29T20:06:21.361Z,28.27
2022-07-29T20:08:49.081Z,28.29
2022-07-29T20:11:17.121Z,28.27
2022-07-29T20:13:46.785Z,28.29
2022-07-29T20:16:23.316Z,28.35
2022-07-29T20:18:54.180Z,28.28
2022-07-29T20:21:27.023Z,28.29
2022-07-29T20:24:02.476Z,28.14
2022-07-29T20:26:39.055Z,28.14
2022-07-29T20:29:07.176Z,28.07
2022-07-29T20:31:40.335Z,27.96
2022-07-29T20:34:15.648Z,27.81
2022-07-29T20:36:46.361Z,27.78
2022-07-29T20:39:21.415Z,27.70
2022-07-29T20:41:56.505Z,27.62
2022-07-29T20:45:03.433Z,27.56
2022-07-29T20:48:02.872Z,27.46
2022-07-29T20:50:34.948Z,27.54
2022-07-29T20:53:07.224Z,27.48
2022-07-29T20:55:35.360Z,27.51
2022-07-29T20:58:03.319Z,27.39
2022-07-29T21:00:32.113Z,27.28
2022-07-29T21:03:10.179Z,27.23
2022-07-29T21:06:20.376Z,27.14
2022-07-29T21:09:28.292Z,27.08
2022-07-29T21:12:00.567Z,26.93
2022-07-29T21:14:47.823Z,26.92
2022-07-29T21:17:16.974Z,26.84
2022-07-29T21:19:44.531Z,26.83
2022-07-29T21:22:12.665Z,26.77
2022-07-29T21:24:41.399Z,26.65
2022-07-29T21:27:28.396Z,26.55
2022-07-29T21:30:00.097Z,26.67
2022-07-29T21:32:30.315Z,26.67
2022-07-29T21:35:00.307Z,26.71
2022-07-29T21:37:28.773Z,26.62
2022-07-29T21:39:59.668Z,26.56
2022-07-29T21:42:35.541Z,26.62
2022-07-29T21:45:05.842Z,26.43
2022-07-29T21:47:41.205Z,26.50
2022-07-29T21:50:18.775Z,26.60
2022-07-29T21:53:06.073Z,26.61
2022-07-29T21:56:00.483Z,26.49
2022-07-29T21:58:46.454Z,26.54
2022-07-29T22:01:39.200Z,26.47
2022-07-29T22:04:23.994Z,26.37
2022-07-29T22:07:19.016Z,26.41
2022-07-29T22:09:58.422Z,26.51
2022-07-29T22:12:29.323Z,26.47
2022-07-29T22:20:03.251Z,26.42
2022-07-29T22:22:54.928Z,26.54
2022-07-29T22:25:29.375Z,26.38
2022-07-29T22:27:57.433Z,26.41
2022-07-29T22:30:29.931Z,26.42
2022-07-29T22:33:04.872Z,26.36
2022-07-29T22:35:36.705Z,26.35
2022-07-29T22:38:04.277Z,26.21
2022-07-29T22:40:36.089Z,26.20
2022-07-29T22:43:06.754Z,26.25
2022-07-29T22:45:41.665Z,26.04
2022-07-29T22:48:09.366Z,25.91
2022-07-29T22:50:37.233Z,25.87
2022-07-29T22:53:04.514Z,25.80
2022-07-29T22:55:32.082Z,25.77
2022-07-29T22:58:03.540Z,25.87
2022-07-29T23:00:32.866Z,25.83
2022-07-29T23:06:54.323Z,25.92
2022-07-29T23:09:21.871Z,25.78
2022-07-29T23:11:50.418Z,25.74
2022-07-29T23:14:57.036Z,25.65
2022-07-29T23:18:26.636Z,25.59
2022-07-29T23:21:01.212Z,25.53
2022-07-29T23:23:32.509Z,25.54
2022-07-29T23:26:02.375Z,25.57
2022-07-29T23:28:32.283Z,25.51
2022-07-29T23:30:59.724Z,25.54
2022-07-29T23:33:27.498Z,25.47
2022-07-29T23:35:55.033Z,25.46
2022-07-29T23:38:26.656Z,25.45
2022-07-29T23:41:03.197Z,25.43
2022-07-29T23:43:59.780Z,25.43
2022-07-29T23:46:40.350Z,25.45
2022-07-29T23:49:18.598Z,25.42
2022-07-29T23:55:37.431Z,25.43
2022-07-29T23:58:41.864Z,25.46
